Time;durP1;ratioP1;P1;durP2;ratioP2;P2;SDS_P1;SDS_P2;PMS_P1;PMS_P2;Temp;Humidity;BMP_temperature;BMP_pressure;BME280_temperature;BME280_humidity;BME280_pressure;Samples;Min_cycle;Max_cycle;Signal;HPM_P1;HPM_P2
2022/11/05 00:09:32;;;;;;;3.43;3.13;;;11.00;99.90;;;;;;4978024;28;20457;-65
2022/11/05 00:17:32;;;;;;;2.10;2.00;;;11.00;99.90;;;;;;4977524;28;20898;-65
2022/11/05 00:19:59;;;;;;;2.10;1.93;;;11.00;99.90;;;;;;4977135;28;20469;-65
2022/11/05 00:25:15;;;;;;;1.60;1.60;;;11.00;99.90;;;;;;4977144;28;20458;-65
2022/11/05 00:27:44;;;;;;;1.80;1.70;;;11.00;99.90;;;;;;4977062;28;20466;-65
2022/11/05 00:30:12;;;;;;;1.80;1.70;;;11.00;99.90;;;;;;4977065;28;20478;-64
2022/11/05 00:32:39;;;;;;;1.90;1.80;;;11.00;99.90;;;;;;4976527;28;20986;-64
2022/11/05 00:35:07;;;;;;;2.00;1.90;;;11.10;99.90;;;;;;4976763;28;20463;-65
2022/11/05 00:37:33;;;;;;;5.13;1.93;;;11.00;99.90;;;;;;4976869;28;20461;-65
2022/11/05 00:40:00;;;;;;;2.60;1.97;;;11.00;99.90;;;;;;4976163;28;20454;-64
2022/11/05 00:45:12;;;;;;;2.00;1.90;;;11.00;99.90;;;;;;4976968;28;20417;-64
2022/11/05 00:50:24;;;;;;;2.30;2.20;;;10.90;99.90;;;;;;4976925;28;20519;-65
2022/11/05 00:52:58;;;;;;;2.80;2.60;;;10.90;99.90;;;;;;4976337;28;20982;-64
2022/11/05 00:55:28;;;;;;;3.10;2.50;;;10.80;99.90;;;;;;4976743;28;20442;-65
2022/11/05 00:57:55;;;;;;;3.93;3.07;;;10.80;99.90;;;;;;4976835;28;20484;-65
2022/11/05 01:00:24;;;;;;;4.03;3.10;;;10.80;99.90;;;;;;4976467;28;20514;-65
2022/11/05 01:02:52;;;;;;;3.10;2.90;;;10.80;99.90;;;;;;4976209;28;20845;-65
2022/11/05 01:05:19;;;;;;;4.67;4.27;;;10.80;99.90;;;;;;4976528;28;20463;-65
2022/11/05 01:07:45;;;;;;;3.40;3.20;;;10.80;99.90;;;;;;4976081;28;20530;-65
2022/11/05 01:10:12;;;;;;;3.57;3.37;;;10.80;99.90;;;;;;4977025;28;20509;-65
2022/11/05 01:12:39;;;;;;;3.53;3.27;;;10.70;99.90;;;;;;4976176;28;20474;-65
2022/11/05 01:15:06;;;;;;;4.57;4.17;;;10.70;99.90;;;;;;4976055;28;20494;-65
2022/11/05 01:17:34;;;;;;;4.10;3.60;;;10.80;99.90;;;;;;4976204;28;20870;-65
2022/11/05 01:20:01;;;;;;;4.80;4.40;;;10.80;99.90;;;;;;4976304;28;20509;-65
2022/11/05 01:22:28;;;;;;;4.37;4.07;;;10.80;99.90;;;;;;4976034;28;20493;-65
2022/11/05 01:24:54;;;;;;;5.30;4.00;;;10.80;99.90;;;;;;4975704;28;20807;-65
2022/11/05 01:27:21;;;;;;;5.43;4.93;;;10.80;99.90;;;;;;4975709;28;20513;-65
2022/11/05 01:29:48;;;;;;;5.43;4.17;;;10.80;99.90;;;;;;4975838;28;20514;-65
2022/11/05 01:32:14;;;;;;;4.00;3.70;;;10.80;99.90;;;;;;4975529;28;20993;-65
2022/11/05 01:34:42;;;;;;;5.40;4.10;;;10.80;99.90;;;;;;4975851;28;20490;-65
2022/11/05 01:37:09;;;;;;;5.17;4.40;;;10.80;99.90;;;;;;4975964;28;20458;-65
2022/11/05 01:39:36;;;;;;;4.77;4.30;;;10.80;99.90;;;;;;4975833;28;20450;-65
2022/11/05 01:42:02;;;;;;;4.63;4.30;;;10.80;99.90;;;;;;4975606;28;20478;-64
2022/11/05 01:44:54;;;;;;;5.43;5.03;;;10.80;99.90;;;;;;4975674;28;20459;-64
2022/11/05 01:47:32;;;;;;;6.20;5.03;;;10.80;99.90;;;;;;4975640;28;20443;-64
2022/11/05 01:50:04;;;;;;;4.80;4.50;;;10.80;99.90;;;;;;4975734;28;20470;-66
2022/11/05 01:52:34;;;;;;;4.63;4.33;;;10.90;99.90;;;;;;4974812;28;20835;-65
2022/11/05 01:55:03;;;;;;;5.40;5.00;;;10.80;99.90;;;;;;4975405;28;20442;-64
2022/11/05 01:57:31;;;;;;;4.77;4.47;;;10.80;99.90;;;;;;4975504;28;20458;-64
2022/11/05 02:00:00;;;;;;;5.20;4.80;;;10.90;99.90;;;;;;4975357;28;20451;-64
2022/11/05 02:02:28;;;;;;;5.07;4.67;;;10.80;99.90;;;;;;4975161;28;20482;-64
2022/11/05 02:05:00;;;;;;;5.63;5.13;;;10.80;99.90;;;;;;4975421;28;20946;-64
2022/11/05 02:07:29;;;;;;;5.43;5.13;;;10.80;99.90;;;;;;4975636;28;20501;-65
2022/11/05 02:10:00;;;;;;;5.73;5.23;;;10.90;99.90;;;;;;4975479;28;20489;-65
2022/11/05 02:12:28;;;;;;;5.60;4.97;;;10.80;99.90;;;;;;4975382;28;20566;-65
2022/11/05 02:14:55;;;;;;;5.90;5.43;;;10.80;99.90;;;;;;4975285;28;20545;-66
2022/11/05 02:17:36;;;;;;;5.10;4.70;;;10.80;99.90;;;;;;4975289;28;20465;-65
2022/11/05 02:20:28;;;;;;;4.80;4.50;;;10.80;99.90;;;;;;4975193;28;20435;-65
2022/11/05 02:23:33;;;;;;;5.03;4.73;;;10.80;99.90;;;;;;4975934;28;20479;-65
2022/11/05 02:26:29;;;;;;;4.50;4.30;;;10.80;99.90;;;;;;4975020;28;20435;-65
2022/11/05 02:29:34;;;;;;;5.20;4.80;;;10.80;99.90;;;;;;4974758;28;20969;-65
2022/11/05 02:32:09;;;;;;;5.90;5.50;;;10.90;99.90;;;;;;4974931;28;20483;-65
2022/11/05 02:34:47;;;;;;;6.53;6.03;;;10.90;99.90;;;;;;4974973;28;20439;-65
2022/11/05 02:37:25;;;;;;;5.70;5.30;;;10.90;99.90;;;;;;4974941;28;20442;-65
2022/11/05 02:39:58;;;;;;;6.60;6.03;;;10.90;99.90;;;;;;4974917;28;20445;-65
2022/11/05 02:42:35;;;;;;;7.87;7.27;;;10.80;99.90;;;;;;4974529;28;20474;-64
2022/11/05 02:45:09;;;;;;;7.07;6.47;;;10.90;99.90;;;;;;4974633;28;20446;-64
2022/11/05 02:47:44;;;;;;;6.33;5.93;;;10.90;99.90;;;;;;4975786;28;20449;-65
2022/11/05 02:50:19;;;;;;;7.03;6.43;;;10.90;99.90;;;;;;4974737;28;20520;-65
2022/11/05 02:52:56;;;;;;;6.90;6.40;;;10.90;99.90;;;;;;4974451;28;20478;-64
2022/11/05 02:55:26;;;;;;;7.10;6.60;;;10.90;99.90;;;;;;4974461;28;20988;-65
2022/11/05 02:57:53;;;;;;;7.47;6.60;;;10.90;99.90;;;;;;4974625;28;20458;-64
2022/11/05 03:00:43;;;;;;;9.07;8.47;;;10.90;99.90;;;;;;4974654;28;20869;-64
2022/11/05 03:03:18;;;;;;;8.77;7.87;;;10.90;99.90;;;;;;4976653;28;20981;-64
2022/11/05 03:05:58;;;;;;;9.67;8.90;;;10.80;99.90;;;;;;4978683;28;20471;-64
2022/11/05 03:08:38;;;;;;;9.43;8.60;;;10.80;99.90;;;;;;4978376;28;20466;-64
2022/11/05 03:11:13;;;;;;;9.20;8.40;;;10.90;99.90;;;;;;4978582;28;20559;-64
2022/11/05 03:13:50;;;;;;;9.60;8.80;;;10.80;99.90;;;;;;4978331;28;20445;-64
2022/11/05 03:16:22;;;;;;;9.23;8.53;;;10.80;99.90;;;;;;4978801;28;20446;-64
2022/11/05 03:18:58;;;;;;;9.40;8.70;;;10.80;99.90;;;;;;4978238;28;20439;-64
2022/11/05 03:21:35;;;;;;;10.63;9.73;;;10.80;99.90;;;;;;4978255;28;20449;-65
2022/11/05 03:24:07;;;;;;;10.33;8.80;;;10.80;99.90;;;;;;4978340;28;20451;-65
2022/11/05 03:26:41;;;;;;;10.10;9.13;;;10.80;99.90;;;;;;4978326;28;20438;-64
2022/11/05 03:29:11;;;;;;;10.73;9.83;;;10.80;99.90;;;;;;4977886;28;20970;-64
2022/11/05 03:31:39;;;;;;;10.50;9.60;;;10.80;99.90;;;;;;4977880;28;20981;-65
2022/11/05 03:34:08;;;;;;;11.13;10.10;;;10.80;99.90;;;;;;4977848;28;20868;-65
2022/11/05 03:36:40;;;;;;;11.63;10.40;;;10.80;99.90;;;;;;4978337;28;20504;-65
2022/11/05 03:39:11;;;;;;;10.37;9.57;;;10.80;99.90;;;;;;4978287;28;20872;-65
2022/11/05 03:41:42;;;;;;;10.73;9.83;;;10.80;99.90;;;;;;4978010;28;20481;-65
2022/11/05 03:44:14;;;;;;;11.13;9.80;;;10.80;99.90;;;;;;4977974;28;20435;-65
2022/11/05 03:46:44;;;;;;;11.00;10.10;;;10.80;99.90;;;;;;4977913;28;20438;-65
2022/11/05 03:49:18;;;;;;;11.97;10.97;;;10.80;99.90;;;;;;4977855;28;20577;-65
2022/11/05 03:51:50;;;;;;;12.87;11.87;;;10.80;99.90;;;;;;4977874;28;20474;-65
2022/11/05 03:54:17;;;;;;;13.57;12.30;;;10.90;99.90;;;;;;4978761;28;20442;-65
2022/11/05 03:56:51;;;;;;;11.83;10.80;;;10.80;99.90;;;;;;4977818;28;20458;-65
2022/11/05 03:59:19;;;;;;;12.30;11.13;;;10.80;99.90;;;;;;4977731;28;20909;-65
2022/11/05 04:01:47;;;;;;;12.13;11.13;;;10.80;99.90;;;;;;4977333;28;20486;-65
2022/11/05 04:04:15;;;;;;;11.83;10.83;;;10.80;99.90;;;;;;4977557;28;20501;-65
2022/11/05 04:14:55;;;;;;;11.30;10.40;;;10.70;99.90;;;;;;4977076;28;20510;-65
2022/11/05 04:17:21;;;;;;;12.10;11.20;;;10.70;99.90;;;;;;4977778;28;20862;-65
2022/11/05 04:25:25;;;;;;;12.37;11.40;;;10.70;99.90;;;;;;4976984;28;20409;-65
2022/11/05 04:27:53;;;;;;;13.77;12.50;;;10.80;99.90;;;;;;4977097;28;20502;-65
2022/11/05 04:30:19;;;;;;;13.80;12.70;;;10.70;99.90;;;;;;4976754;28;20537;-65
2022/11/05 04:32:56;;;;;;;13.53;12.40;;;10.70;99.90;;;;;;4976867;28;20474;-65
2022/11/05 04:35:24;;;;;;;15.20;13.97;;;10.70;99.90;;;;;;4976866;28;20451;-65
2022/11/05 04:37:51;;;;;;;15.03;13.70;;;10.70;99.90;;;;;;4976816;28;20849;-65
2022/11/05 04:40:18;;;;;;;16.53;14.90;;;10.70;99.90;;;;;;4976510;28;20458;-65
2022/11/05 04:42:45;;;;;;;16.23;14.83;;;10.80;99.90;;;;;;4976775;28;20537;-65
2022/11/05 04:45:11;;;;;;;15.67;14.47;;;10.70;99.90;;;;;;4976785;28;20834;-65
2022/11/05 04:47:38;;;;;;;16.00;14.60;;;10.80;99.90;;;;;;4976629;28;20525;-65
2022/11/05 04:50:05;;;;;;;15.37;14.07;;;10.80;99.90;;;;;;4976519;28;20482;-65
2022/11/05 04:52:33;;;;;;;15.73;14.40;;;10.70;99.90;;;;;;4976512;28;20545;-64
2022/11/05 04:55:00;;;;;;;16.33;14.83;;;10.70;99.90;;;;;;4976197;28;20959;-64
2022/11/05 04:57:26;;;;;;;16.07;14.70;;;10.70;99.90;;;;;;4976473;28;20509;-64
2022/11/05 04:59:53;;;;;;;17.07;15.43;;;10.70;99.90;;;;;;4976436;28;20511;-64
2022/11/05 05:02:20;;;;;;;17.03;15.50;;;10.60;99.90;;;;;;4976251;28;20497;-66
2022/11/05 05:04:47;;;;;;;16.77;15.37;;;10.60;99.90;;;;;;4976426;28;20454;-64
2022/11/05 05:07:14;;;;;;;17.53;16.03;;;10.60;99.90;;;;;;4976386;28;20450;-66
2022/11/05 05:09:42;;;;;;;18.67;17.17;;;10.60;99.90;;;;;;4976026;28;20958;-65
2022/11/05 05:12:08;;;;;;;17.17;15.80;;;10.50;99.90;;;;;;4976411;28;20533;-64
2022/11/05 05:14:35;;;;;;;16.90;15.60;;;10.60;99.90;;;;;;4976915;28;20438;-64
2022/11/05 05:17:02;;;;;;;17.47;15.97;;;10.60;99.90;;;;;;4976200;28;20446;-65
2022/11/05 05:19:28;;;;;;;16.47;15.10;;;10.60;99.90;;;;;;4976087;28;20584;-64
2022/11/05 05:21:54;;;;;;;16.03;14.60;;;10.60;99.90;;;;;;4976753;28;20478;-65
2022/11/05 05:24:23;;;;;;;17.07;15.67;;;10.60;99.90;;;;;;4975930;28;20493;-65
2022/11/05 05:26:51;;;;;;;16.57;15.27;;;10.60;99.90;;;;;;4975916;28;20192;-65
2022/11/05 05:29:18;;;;;;;18.43;16.93;;;10.60;99.90;;;;;;4976614;28;20846;-64
2022/11/05 05:31:45;;;;;;;18.23;16.57;;;10.60;99.90;;;;;;4976068;28;20800;-64
2022/11/05 05:34:13;;;;;;;16.83;15.50;;;10.60;99.90;;;;;;4975813;28;20462;-64
2022/11/05 05:36:40;;;;;;;16.53;15.13;;;10.60;99.90;;;;;;4976035;28;20450;-65
2022/11/05 05:39:09;;;;;;;18.80;17.00;;;10.60;99.90;;;;;;4975677;28;20451;-65
2022/11/05 05:41:36;;;;;;;18.70;17.00;;;10.60;99.90;;;;;;4975624;28;20485;-65
2022/11/05 05:44:04;;;;;;;17.73;16.07;;;10.60;99.90;;;;;;4975352;28;20486;-65
2022/11/05 05:46:31;;;;;;;18.73;17.13;;;10.70;99.90;;;;;;4975835;28;20814;-64
2022/11/05 05:48:58;;;;;;;18.30;16.80;;;10.60;99.90;;;;;;4975744;28;20535;-64
2022/11/05 05:51:24;;;;;;;17.43;15.90;;;10.60;99.90;;;;;;4976193;28;20502;-64
2022/11/05 05:53:52;;;;;;;17.90;16.40;;;10.50;99.90;;;;;;4975670;28;20938;-64
2022/11/05 05:56:19;;;;;;;20.00;17.90;;;10.50;99.90;;;;;;4975972;28;20458;-64
2022/11/05 05:58:47;;;;;;;17.87;16.27;;;10.50;99.90;;;;;;4976108;28;20457;-64
2022/11/05 06:01:17;;;;;;;18.83;17.07;;;10.50;99.90;;;;;;4975380;28;20468;-66
2022/11/05 06:03:44;;;;;;;18.47;16.80;;;10.50;99.90;;;;;;4975787;28;20466;-64
2022/11/05 06:06:12;;;;;;;19.33;17.67;;;10.50;99.90;;;;;;4975673;28;20459;-64
2022/11/05 06:08:40;;;;;;;19.00;17.30;;;10.50;99.90;;;;;;4975666;28;20889;-65
2022/11/05 06:11:07;;;;;;;21.70;19.77;;;10.50;99.90;;;;;;4975630;28;20487;-66
2022/11/05 06:13:35;;;;;;;19.47;17.60;;;10.50;99.90;;;;;;4975506;28;20483;-65
2022/11/05 06:16:03;;;;;;;20.50;18.50;;;10.50;99.90;;;;;;4975350;28;20867;-64
2022/11/05 06:18:32;;;;;;;20.00;18.20;;;10.50;99.90;;;;;;4975236;28;20447;-64
2022/11/05 06:21:01;;;;;;;21.87;19.67;;;10.50;99.90;;;;;;4975329;28;20461;-64
2022/11/05 06:23:29;;;;;;;19.90;18.20;;;10.50;99.90;;;;;;4975169;28;20993;-65
2022/11/05 06:25:59;;;;;;;21.63;19.53;;;10.50;99.90;;;;;;4975443;28;20459;-64
2022/11/05 06:28:26;;;;;;;21.03;19.17;;;10.50;99.90;;;;;;4976210;28;20454;-64
2022/11/05 06:30:53;;;;;;;21.27;19.20;;;10.50;99.90;;;;;;4975064;28;20483;-65
2022/11/05 06:33:19;;;;;;;21.47;19.37;;;10.50;99.90;;;;;;4975177;28;20474;-65
2022/11/05 06:35:47;;;;;;;19.50;17.70;;;10.50;99.90;;;;;;4974954;28;20510;-65
2022/11/05 06:38:14;;;;;;;21.57;19.57;;;10.50;99.90;;;;;;4980664;28;20459;-65
2022/11/05 06:40:41;;;;;;;20.43;18.73;;;10.50;99.90;;;;;;4981285;28;20455;-64
2022/11/05 06:43:08;;;;;;;20.07;18.47;;;10.50;99.90;;;;;;4981155;28;20541;-64
2022/11/05 06:45:34;;;;;;;20.43;18.53;;;10.50;99.90;;;;;;4981104;28;20458;-66
2022/11/05 06:48:01;;;;;;;20.23;18.20;;;10.60;99.90;;;;;;4981028;28;20454;-65
2022/11/05 06:50:29;;;;;;;20.90;18.90;;;10.50;99.90;;;;;;4980862;28;20462;-66
2022/11/05 06:52:58;;;;;;;20.10;18.20;;;10.50;99.90;;;;;;4981116;28;20567;-66
2022/11/05 06:55:26;;;;;;;21.40;19.43;;;10.50;99.90;;;;;;4981139;28;20462;-65
2022/11/05 06:57:53;;;;;;;22.33;20.20;;;10.50;99.90;;;;;;4981133;28;20464;-65
2022/11/05 07:00:20;;;;;;;23.73;21.53;;;10.50;99.90;;;;;;4980820;28;20486;-65
2022/11/05 07:02:47;;;;;;;22.10;20.20;;;10.50;99.90;;;;;;4981107;28;20950;-65
2022/11/05 07:05:14;;;;;;;22.30;20.10;;;10.50;99.90;;;;;;4981047;28;20513;-65
2022/11/05 07:07:42;;;;;;;27.53;21.67;;;10.40;99.90;;;;;;4981203;28;20868;-65
2022/11/05 07:10:13;;;;;;;23.50;21.30;;;10.50;99.90;;;;;;4981042;28;20478;-65
2022/11/05 07:12:39;;;;;;;23.30;21.10;;;10.50;99.90;;;;;;4980738;28;20857;-65
2022/11/05 07:15:08;;;;;;;21.87;19.77;;;10.60;99.90;;;;;;4980905;28;20980;-68
2022/11/05 07:17:34;;;;;;;22.10;19.97;;;10.70;99.90;;;;;;4981082;28;20438;-69
2022/11/05 07:20:01;;;;;;;21.50;19.47;;;10.80;99.90;;;;;;4980915;28;20438;-69
2022/11/05 07:22:27;;;;;;;20.90;19.10;;;11.00;99.90;;;;;;4980843;28;20886;-69
2022/11/05 07:24:54;;;;;;;21.37;19.30;;;11.10;99.90;;;;;;4980853;28;20458;-69
2022/11/05 07:27:22;;;;;;;22.13;20.20;;;11.30;99.90;;;;;;4981536;28;20447;-68
2022/11/05 07:29:49;;;;;;;21.17;19.07;;;11.30;99.90;;;;;;4980815;28;20481;-68
2022/11/05 07:32:15;;;;;;;21.37;19.37;;;11.40;99.90;;;;;;4981334;28;20533;-67
2022/11/05 07:34:42;;;;;;;21.50;18.83;;;11.40;99.90;;;;;;4980881;28;20454;-67
2022/11/05 07:37:09;;;;;;;20.80;18.70;;;11.40;99.90;;;;;;4981093;28;20481;-67
2022/11/05 07:39:35;;;;;;;20.77;18.73;;;11.30;99.90;;;;;;4980876;28;20505;-69
2022/11/05 07:42:02;;;;;;;21.00;18.80;;;11.30;99.90;;;;;;4980910;28;20474;-68
2022/11/05 07:44:30;;;;;;;19.47;17.67;;;11.30;99.90;;;;;;4980863;28;20454;-69
2022/11/05 07:46:56;;;;;;;20.40;18.40;;;11.30;99.90;;;;;;4980781;28;20867;-68
2022/11/05 07:49:23;;;;;;;21.20;18.73;;;11.30;99.90;;;;;;4977446;28;20458;-68
2022/11/05 07:51:50;;;;;;;21.27;19.07;;;11.20;99.90;;;;;;4977725;28;20584;-68
2022/11/05 07:54:16;;;;;;;21.93;19.00;;;11.20;99.90;;;;;;4978282;28;20505;-69
2022/11/05 07:56:43;;;;;;;21.20;19.07;;;11.10;99.90;;;;;;4978904;28;20517;-68
2022/11/05 07:59:10;;;;;;;21.97;19.50;;;11.00;99.90;;;;;;4977740;28;20882;-69
2022/11/05 08:01:38;;;;;;;20.63;18.80;;;11.00;99.90;;;;;;4977469;28;20532;-67
2022/11/05 08:04:04;;;;;;;20.90;19.00;;;10.90;99.90;;;;;;4977690;28;20462;-67
2022/11/05 08:06:31;;;;;;;22.33;20.30;;;10.90;99.90;;;;;;4977849;28;20458;-68
2022/11/05 08:08:58;;;;;;;21.73;19.63;;;10.80;99.90;;;;;;4977405;28;20458;-68
2022/11/05 08:11:25;;;;;;;22.13;20.07;;;10.80;99.90;;;;;;4977342;28;20819;-68
2022/11/05 08:13:51;;;;;;;21.80;18.70;;;10.80;99.90;;;;;;4978212;28;20525;-69
2022/11/05 08:16:18;;;;;;;22.20;19.07;;;10.80;99.90;;;;;;4977523;28;20525;-69
2022/11/05 08:18:47;;;;;;;20.20;18.03;;;10.80;99.90;;;;;;4977322;28;21009;-69
2022/11/05 08:21:13;;;;;;;19.63;17.73;;;10.70;99.90;;;;;;4977406;28;20901;-69
2022/11/05 08:23:41;;;;;;;17.60;15.93;;;10.70;99.90;;;;;;4977452;28;20459;-69
2022/11/05 08:26:08;;;;;;;17.07;15.33;;;10.70;99.90;;;;;;4977395;28;20455;-69
2022/11/05 08:28:35;;;;;;;16.03;14.50;;;10.70;99.90;;;;;;4977108;28;21005;-68
2022/11/05 08:31:01;;;;;;;14.90;13.50;;;10.70;99.90;;;;;;4977234;28;20525;-68
2022/11/05 08:33:30;;;;;;;15.50;14.00;;;10.70;99.90;;;;;;4977023;28;20485;-70
2022/11/05 08:36:01;;;;;;;14.47;13.03;;;10.60;99.90;;;;;;4976624;28;20883;-70
2022/11/05 08:38:28;;;;;;;14.53;13.13;;;10.60;99.90;;;;;;4976938;28;20442;-69
2022/11/05 08:40:57;;;;;;;13.87;12.60;;;10.50;99.90;;;;;;4977629;28;20447;-69
2022/11/05 08:43:24;;;;;;;12.70;11.50;;;10.50;99.90;;;;;;4978142;28;20813;-70
2022/11/05 08:45:50;;;;;;;11.00;9.90;;;10.40;99.90;;;;;;4978676;28;20461;-68
2022/11/05 08:48:19;;;;;;;10.93;9.93;;;10.30;99.90;;;;;;4977915;28;20505;-69
2022/11/05 08:50:47;;;;;;;10.60;9.70;;;10.30;99.90;;;;;;4976966;28;20478;-68
2022/11/05 08:53:15;;;;;;;10.83;9.83;;;10.30;99.90;;;;;;4976425;28;20502;-68
2022/11/05 08:55:42;;;;;;;10.73;9.83;;;10.30;99.90;;;;;;4977510;28;20482;-68
2022/11/05 08:58:13;;;;;;;10.47;9.67;;;10.20;99.90;;;;;;4977021;28;20454;-68
2022/11/05 09:00:41;;;;;;;11.20;10.10;;;10.20;99.90;;;;;;4976354;28;20490;-69
2022/11/05 09:03:09;;;;;;;11.17;10.20;;;10.10;99.90;;;;;;4976193;28;21024;-68
2022/11/05 09:05:38;;;;;;;10.50;9.50;;;10.10;99.90;;;;;;4976508;28;20455;-68
2022/11/05 09:08:05;;;;;;;10.00;9.20;;;10.10;99.90;;;;;;4976370;28;20458;-69
2022/11/05 09:10:33;;;;;;;9.90;9.00;;;10.00;99.90;;;;;;4976316;28;20990;-69
2022/11/05 09:13:00;;;;;;;9.27;8.47;;;10.10;99.90;;;;;;4976018;28;20533;-68
2022/11/05 09:15:27;;;;;;;9.60;8.90;;;10.10;99.90;;;;;;4976439;28;20575;-68
2022/11/05 09:17:54;;;;;;;9.53;8.73;;;10.20;99.90;;;;;;4975940;28;20743;-68
2022/11/05 09:20:21;;;;;;;9.83;9.03;;;10.20;99.90;;;;;;4976279;28;20877;-68
2022/11/05 09:22:48;;;;;;;10.17;9.37;;;10.30;99.90;;;;;;4975684;28;20990;-68
2022/11/05 09:25:15;;;;;;;9.53;8.83;;;10.30;99.90;;;;;;4976007;28;20525;-68
2022/11/05 09:27:43;;;;;;;10.97;10.07;;;10.30;99.90;;;;;;4976042;28;20546;-68
2022/11/05 09:30:11;;;;;;;10.80;9.80;;;10.30;99.90;;;;;;4975847;28;20870;-68
2022/11/05 09:32:38;;;;;;;10.63;9.73;;;10.30;99.90;;;;;;4975578;28;20564;-68
2022/11/05 09:35:06;;;;;;;9.80;8.97;;;10.30;99.90;;;;;;4975696;28;20517;-68
2022/11/05 09:37:32;;;;;;;11.43;10.43;;;10.20;99.90;;;;;;4975924;28;20458;-69
2022/11/05 09:39:59;;;;;;;11.00;10.10;;;10.30;99.90;;;;;;4975786;28;20545;-68
2022/11/05 09:42:31;;;;;;;9.87;9.00;;;10.40;99.90;;;;;;4975803;28;20534;-69
2022/11/05 09:45:02;;;;;;;10.13;9.23;;;10.40;99.90;;;;;;4978887;28;20445;-68
2022/11/05 09:47:32;;;;;;;10.80;9.83;;;10.50;99.90;;;;;;4991723;28;20455;-67
2022/11/05 09:50:02;;;;;;;9.93;8.93;;;10.60;99.90;;;;;;4991235;28;20443;-68
2022/11/05 09:52:30;;;;;;;9.77;8.90;;;10.70;99.90;;;;;;4989330;28;20485;-67
2022/11/05 09:54:58;;;;;;;11.30;10.20;;;10.70;99.90;;;;;;4977322;28;20463;-67
2022/11/05 09:57:27;;;;;;;10.47;9.47;;;10.70;99.90;;;;;;4976656;28;20509;-68
2022/11/05 09:59:56;;;;;;;9.20;8.40;;;11.00;99.90;;;;;;4975724;28;20454;-68
2022/11/05 10:02:29;;;;;;;12.93;8.30;;;11.20;99.90;;;;;;4975506;28;20479;-68
2022/11/05 10:05:00;;;;;;;10.23;9.43;;;11.40;99.90;;;;;;4975596;28;20497;-68
2022/11/05 10:07:30;;;;;;;9.30;8.50;;;11.60;99.90;;;;;;4975635;28;20490;-68
2022/11/05 10:10:00;;;;;;;9.50;8.60;;;11.90;99.90;;;;;;4975542;28;20459;-70
2022/11/05 10:12:31;;;;;;;10.57;9.47;;;12.00;99.90;;;;;;4975121;28;20515;-68
2022/11/05 10:15:07;;;;;;;11.30;10.20;;;12.00;99.90;;;;;;4975590;28;20462;-68
2022/11/05 10:17:37;;;;;;;11.33;10.13;;;12.00;99.90;;;;;;4975417;28;20446;-68
2022/11/05 10:20:10;;;;;;;11.53;10.50;;;11.80;99.90;;;;;;4975441;28;20463;-68
2022/11/05 10:22:38;;;;;;;10.30;9.30;;;11.80;99.90;;;;;;4975152;28;20485;-67
2022/11/05 10:25:16;;;;;;;10.97;10.00;;;11.70;99.90;;;;;;4975716;28;20942;-68
2022/11/05 10:27:46;;;;;;;12.10;10.90;;;11.70;99.90;;;;;;4975367;28;20439;-68
2022/11/05 10:30:14;;;;;;;11.63;10.60;;;11.70;99.90;;;;;;4975596;28;20506;-70
2022/11/05 10:32:44;;;;;;;12.80;11.60;;;11.60;99.90;;;;;;4975121;28;20573;-68
2022/11/05 10:35:17;;;;;;;13.73;12.30;;;11.60;99.90;;;;;;4975383;28;20470;-67
2022/11/05 10:37:44;;;;;;;12.70;11.50;;;11.50;99.90;;;;;;4975186;28;20439;-68
2022/11/05 10:40:17;;;;;;;13.80;12.43;;;11.40;99.90;;;;;;4975012;28;20858;-69
2022/11/05 10:42:54;;;;;;;13.13;11.80;;;11.20;99.90;;;;;;4975032;28;20474;-67
2022/11/05 10:45:31;;;;;;;12.90;11.70;;;11.00;99.90;;;;;;4974848;28;20910;-67
2022/11/05 10:48:18;;;;;;;14.67;13.43;;;11.00;99.90;;;;;;4974942;28;20442;-67
2022/11/05 10:50:46;;;;;;;13.43;12.07;;;11.00;99.90;;;;;;4974829;28;20474;-68
2022/11/05 10:53:16;;;;;;;13.20;12.10;;;11.10;99.90;;;;;;4975065;28;20479;-67
2022/11/05 10:55:46;;;;;;;13.63;12.37;;;11.20;99.90;;;;;;4975116;28;20445;-68
2022/11/05 10:58:20;;;;;;;12.73;11.53;;;11.20;99.90;;;;;;4974861;28;20449;-68
2022/11/05 11:01:02;;;;;;;15.93;14.23;;;11.20;99.90;;;;;;4974400;28;20471;-69
2022/11/05 11:03:40;;;;;;;13.60;12.23;;;11.30;99.90;;;;;;4974864;28;20478;-68
2022/11/05 11:06:18;;;;;;;14.00;12.57;;;11.30;99.90;;;;;;4974731;28;20442;-68
2022/11/05 11:08:46;;;;;;;13.27;11.97;;;11.30;99.90;;;;;;4975643;28;20451;-68
2022/11/05 11:11:26;;;;;;;13.67;12.37;;;11.30;99.90;;;;;;4974636;28;20485;-68
2022/11/05 11:14:02;;;;;;;13.13;11.93;;;11.30;99.90;;;;;;4974628;28;20808;-68
2022/11/05 11:16:34;;;;;;;13.20;12.00;;;11.30;99.90;;;;;;4974539;28;20446;-67
2022/11/05 11:19:03;;;;;;;14.30;12.70;;;11.20;99.90;;;;;;4974560;28;20521;-68
2022/11/05 11:21:31;;;;;;;14.10;12.70;;;11.20;99.90;;;;;;4974641;28;20815;-68
2022/11/05 11:24:01;;;;;;;14.57;13.00;;;11.20;99.90;;;;;;4976484;28;20862;-67
2022/11/05 11:26:30;;;;;;;14.63;13.03;;;11.30;99.90;;;;;;4978316;28;20486;-68
2022/11/05 11:29:00;;;;;;;14.73;13.23;;;11.40;99.90;;;;;;4978606;28;20454;-68
2022/11/05 11:31:29;;;;;;;12.93;11.70;;;11.40;99.90;;;;;;4978072;28;20474;-69
2022/11/05 11:34:00;;;;;;;13.83;12.60;;;11.40;99.90;;;;;;4978270;28;20501;-69
2022/11/05 11:36:43;;;;;;;18.60;12.90;;;11.50;99.90;;;;;;4977676;28;20914;-68
2022/11/05 11:39:16;;;;;;;12.50;11.33;;;11.60;99.90;;;;;;4978205;28;20498;-69
2022/11/05 11:41:45;;;;;;;15.30;11.87;;;11.60;99.90;;;;;;4977785;28;20958;-69
2022/11/05 11:44:16;;;;;;;14.60;13.20;;;11.70;99.90;;;;;;4978025;28;20462;-68
2022/11/05 11:46:48;;;;;;;12.63;11.33;;;11.70;99.90;;;;;;4978100;28;20443;-68
2022/11/05 11:49:30;;;;;;;12.53;11.33;;;11.90;99.90;;;;;;4978206;28;20506;-68
2022/11/05 11:52:04;;;;;;;11.50;10.30;;;12.00;99.90;;;;;;4977859;28;21031;-68
2022/11/05 11:54:34;;;;;;;9.63;8.73;;;12.10;99.90;;;;;;4978096;28;20450;-69
2022/11/05 11:57:00;;;;;;;10.10;9.10;;;12.20;99.90;;;;;;4977746;28;20475;-69
2022/11/05 11:59:30;;;;;;;11.73;10.53;;;12.30;99.90;;;;;;4977654;28;20466;-69
2022/11/05 12:02:21;;;;;;;11.30;10.20;;;12.40;99.90;;;;;;4977185;28;20882;-69
2022/11/05 12:05:17;;;;;;;13.67;10.10;;;12.50;99.90;;;;;;4977665;28;20805;-69
2022/11/05 12:07:51;;;;;;;9.30;8.43;;;12.60;99.90;;;;;;4977769;28;20829;-70
2022/11/05 12:10:53;;;;;;;9.90;9.07;;;12.70;99.90;;;;;;4977877;28;20442;-69
2022/11/05 12:13:39;;;;;;;10.30;9.30;;;12.90;99.90;;;;;;4978091;28;20466;-69
2022/11/05 12:16:17;;;;;;;10.33;9.40;;;13.00;99.90;;;;;;4977202;28;20435;-69
2022/11/05 12:18:50;;;;;;;10.93;9.80;;;13.10;99.90;;;;;;4977451;28;20443;-69
2022/11/05 12:21:24;;;;;;;10.70;9.60;;;13.20;99.90;;;;;;4977219;28;20497;-68
2022/11/05 12:24:23;;;;;;;11.17;10.07;;;13.40;99.90;;;;;;4977160;28;20450;-69
2022/11/05 12:27:00;;;;;;;10.60;9.50;;;13.60;99.90;;;;;;4976964;28;20799;-69
2022/11/05 12:29:44;;;;;;;10.60;9.70;;;13.80;99.90;;;;;;4977167;28;20443;-69
2022/11/05 12:32:50;;;;;;;10.20;9.20;;;13.90;99.90;;;;;;4977129;28;20556;-69
2022/11/05 12:35:30;;;;;;;10.70;9.80;;;14.00;99.90;;;;;;4959084;28;20458;-71
2022/11/05 12:38:05;;;;;;;8.93;8.03;;;14.20;99.90;;;;;;4977908;28;20435;-68
2022/11/05 12:40:57;;;;;;;10.27;9.17;;;14.30;99.90;;;;;;4977350;28;20493;-69
2022/11/05 12:43:33;;;;;;;9.70;8.83;;;14.40;99.90;;;;;;4978561;28;20882;-68
2022/11/05 12:46:09;;;;;;;9.90;9.03;;;14.30;99.90;;;;;;4977760;28;20501;-69
2022/11/05 12:49:10;;;;;;;10.53;9.43;;;14.10;99.90;;;;;;4977306;28;20443;-69
2022/11/05 12:51:50;;;;;;;12.37;8.90;;;13.90;99.90;;;;;;4976886;28;20566;-69
2022/11/05 12:54:29;;;;;;;8.90;8.03;;;13.80;99.90;;;;;;4976939;28;20446;-68
2022/11/05 12:57:00;;;;;;;8.90;8.07;;;13.70;99.90;;;;;;4976861;28;20507;-68
2022/11/05 12:59:34;;;;;;;8.47;7.77;;;13.50;99.90;;;;;;4976726;28;20443;-69
2022/11/05 13:02:08;;;;;;;7.77;7.10;;;13.30;99.90;;;;;;4976472;28;20990;-68
2022/11/05 13:04:40;;;;;;;9.10;8.30;;;13.10;99.90;;;;;;4976508;28;20503;-69
2022/11/05 13:07:11;;;;;;;10.60;9.70;;;13.00;99.90;;;;;;4976840;28;20446;-68
2022/11/05 13:09:50;;;;;;;9.20;8.50;;;13.00;99.90;;;;;;4976368;28;20519;-69
2022/11/05 13:12:21;;;;;;;10.40;9.33;;;13.00;99.90;;;;;;4976126;28;20487;-68
2022/11/05 13:14:53;;;;;;;13.13;10.20;;;13.00;99.90;;;;;;4976619;28;20443;-68
2022/11/05 13:17:23;;;;;;;9.93;9.10;;;12.90;99.90;;;;;;4976523;28;20443;-68
2022/11/05 13:19:57;;;;;;;11.67;10.53;;;12.90;99.90;;;;;;4977484;28;20446;-68
2022/11/05 13:22:33;;;;;;;9.50;8.63;;;12.90;99.90;;;;;;4976361;28;20482;-68
2022/11/05 13:25:05;;;;;;;8.20;7.40;;;12.80;99.90;;;;;;4976313;28;20438;-68
2022/11/05 13:27:51;;;;;;;7.90;7.30;;;12.80;99.90;;;;;;4976922;28;20442;-69
2022/11/05 13:30:20;;;;;;;8.63;7.40;;;12.80;99.90;;;;;;4976386;28;20435;-67